Trabzon International Airport Trabzon TR
ICAO: LTCG
IATA: TZX
Category: Large
Scheduled Services: Yes

Elevation: 104 ft
TransAlt. 12000 ft.

Airport Communications:
APP:120.1
GND:121.9
TWR:120.1

LTCG Zoom In..

If you have problems with the map follow the link
https://www.worldairports.se/pages/airport.php?
ICAO=LTCG

Runways:

(A) RW 11 length 8661 ft width 148 ft
ILS 109.10 / hdg 107

(B) RW 29 length 8661 ft width 148 ft
---- / hdg 287

Location; LTCG
Day. 17 / Time. 02.50 Zulu
* QNH: 1016
* Temperature: 11° c. 51.8°f.
* Wind from: VRB° Speed 02 kn.
Dewpoint: 06° c.
Visibility: 10 km or more,
No clouds below 1,500 m.
No cumulonimbus, and no significant weather
fenomena in the aerodrome or its vicinity.
No significant changes expected in the near future.

LTCG 170250Z VRB02KT CAVOK 11/06 Q1016 NOSIG


Wind From VRB°
Speed 02 kn.

 
 
jpsmedia.com for Web Design worldairports.se 2018   terms of use